createdAt,value
2017-06-20T00:01:54.155Z,8.00
2017-06-20T00:04:22.439Z,7.00
2017-06-20T00:06:50.677Z,8.30
2017-06-20T00:09:18.923Z,8.50
2017-06-20T00:11:47.160Z,7.90
2017-06-20T00:14:15.667Z,8.10
2017-06-20T00:16:44.161Z,8.37
2017-06-20T00:19:12.400Z,8.30
2017-06-20T00:21:40.646Z,8.90
2017-06-20T00:24:08.930Z,9.30
2017-06-20T00:26:37.163Z,7.23
2017-06-20T00:29:05.399Z,8.43
2017-06-20T00:31:33.672Z,8.37
2017-06-20T00:34:01.968Z,7.60
2017-06-20T00:36:30.197Z,8.90
2017-06-20T00:38:58.448Z,8.60
2017-06-20T00:41:26.676Z,8.47
2017-06-20T00:43:54.911Z,8.80
2017-06-20T00:46:23.187Z,8.47
2017-06-20T00:48:51.826Z,8.70
2017-06-20T00:51:20.059Z,9.73
2017-06-20T00:53:48.333Z,8.53
2017-06-20T00:56:16.569Z,9.97
2017-06-20T00:58:44.806Z,8.87
2017-06-20T01:01:13.077Z,8.93
2017-06-20T01:03:41.595Z,8.80
2017-06-20T01:06:10.079Z,9.03
2017-06-20T01:08:38.392Z,8.57
2017-06-20T01:11:06.640Z,8.90
2017-06-20T01:13:34.873Z,9.10
2017-06-20T01:16:03.145Z,8.80
2017-06-20T01:18:31.383Z,9.20
2017-06-20T01:21:00.013Z,8.53
2017-06-20T01:23:28.278Z,8.80
2017-06-20T01:25:57.380Z,8.07
2017-06-20T01:28:25.839Z,7.30
2017-06-20T01:30:54.113Z,8.30
2017-06-20T01:33:22.338Z,8.13
2017-06-20T01:35:50.572Z,9.10
2017-06-20T01:38:18.863Z,7.53
2017-06-20T01:40:47.100Z,9.43
2017-06-20T01:43:15.738Z,8.23
2017-06-20T01:45:44.015Z,7.63
2017-06-20T01:48:12.243Z,7.90
2017-06-20T01:50:40.482Z,8.50
2017-06-20T01:53:08.748Z,7.60
2017-06-20T01:55:37.237Z,6.70
2017-06-20T01:58:05.721Z,7.70
2017-06-20T02:00:33.987Z,7.40
2017-06-20T02:03:02.224Z,7.37
2017-06-20T02:05:30.477Z,7.50
2017-06-20T02:07:58.744Z,6.37
2017-06-20T02:10:27.371Z,6.83
2017-06-20T02:12:55.607Z,7.07
2017-06-20T02:15:24.255Z,6.73
2017-06-20T02:17:52.487Z,7.53
2017-06-20T02:20:20.715Z,6.30
2017-06-20T02:22:49.297Z,6.63
2017-06-20T02:25:17.551Z,6.80
2017-06-20T02:27:45.792Z,7.43
2017-06-20T02:30:14.061Z,7.77
2017-06-20T02:32:42.292Z,7.77
2017-06-20T02:35:10.525Z,6.90
2017-06-20T02:37:39.008Z,7.40
2017-06-20T02:40:07.236Z,7.87
2017-06-20T02:42:35.477Z,7.37
2017-06-20T02:45:03.768Z,7.03
2017-06-20T02:47:31.995Z,6.83
2017-06-20T02:50:00.565Z,7.30
2017-06-20T02:52:29.008Z,7.23
2017-06-20T02:54:57.244Z,6.70
2017-06-20T02:57:25.583Z,7.37
2017-06-20T02:59:53.856Z,6.90
2017-06-20T03:02:22.087Z,6.83
2017-06-20T03:04:50.316Z,7.57
2017-06-20T03:07:18.992Z,7.30
2017-06-20T03:09:47.222Z,6.80
2017-06-20T03:12:15.498Z,7.60
2017-06-20T03:14:43.798Z,6.67
2017-06-20T03:17:12.025Z,7.40
2017-06-20T03:19:40.255Z,7.87
2017-06-20T03:22:08.503Z,8.40
2017-06-20T03:24:37.015Z,6.60
2017-06-20T03:27:05.247Z,7.60
2017-06-20T03:29:33.877Z,8.40
2017-06-20T03:32:02.116Z,8.20
2017-06-20T03:34:30.343Z,7.27
2017-06-20T03:36:59.320Z,7.27
2017-06-20T03:39:27.555Z,7.97
2017-06-20T03:41:55.783Z,7.83
2017-06-20T03:44:24.042Z,8.23
2017-06-20T03:46:52.283Z,7.60
2017-06-20T03:49:20.534Z,9.20
2017-06-20T03:51:49.188Z,8.70
2017-06-20T03:54:17.427Z,9.23
2017-06-20T03:56:45.668Z,8.87
2017-06-20T03:59:13.942Z,9.27
2017-06-20T04:01:42.583Z,6.60
2017-06-20T04:04:10.820Z,10.50
2017-06-20T04:06:39.197Z,8.40
2017-06-20T04:09:07.437Z,8.07
2017-06-20T04:11:35.660Z,9.43
2017-06-20T04:14:04.192Z,9.30
2017-06-20T04:16:32.419Z,9.50
2017-06-20T04:19:00.657Z,9.93
2017-06-20T04:21:49.068Z,10.00
2017-06-20T04:24:17.300Z,10.27
2017-06-20T04:26:45.536Z,8.97
2017-06-20T04:29:13.799Z,9.27
2017-06-20T04:31:42.071Z,9.90
2017-06-20T04:34:10.325Z,8.47
2017-06-20T04:36:38.617Z,10.23
2017-06-20T04:39:06.857Z,9.97
2017-06-20T04:41:35.113Z,9.57
2017-06-20T04:44:03.785Z,9.87
2017-06-20T04:46:32.415Z,9.60
2017-06-20T04:49:00.661Z,11.10
2017-06-20T04:51:28.994Z,10.87
2017-06-20T04:53:57.223Z,9.47
2017-06-20T04:56:25.467Z,9.47
2017-06-20T04:58:53.756Z,8.97
2017-06-20T05:01:22.413Z,9.33
2017-06-20T05:03:50.644Z,7.47
2017-06-20T05:06:18.925Z,8.10
2017-06-20T05:08:47.163Z,8.80
2017-06-20T05:11:15.801Z,9.77
2017-06-20T05:13:44.079Z,10.23
2017-06-20T05:16:12.325Z,10.23
2017-06-20T05:18:40.571Z,7.23
2017-06-20T05:21:08.899Z,8.10
2017-06-20T05:23:37.156Z,8.60
2017-06-20T05:26:05.376Z,5.73
2017-06-20T05:28:33.659Z,5.57
2017-06-20T05:31:02.140Z,6.17
2017-06-20T05:33:30.440Z,6.60
2017-06-20T05:35:59.112Z,6.90
2017-06-20T05:38:27.743Z,6.40
2017-06-20T05:40:56.054Z,6.67
2017-06-20T05:43:24.309Z,9.83
2017-06-20T05:45:52.545Z,7.47
2017-06-20T05:48:20.792Z,7.50
2017-06-20T05:50:49.156Z,7.67
2017-06-20T05:53:18.191Z,7.30
2017-06-20T05:55:46.829Z,10.30
2017-06-20T05:58:15.262Z,9.43
2017-06-20T06:00:43.504Z,8.00
2017-06-20T06:03:11.768Z,8.60
2017-06-20T06:05:40.036Z,8.10
2017-06-20T06:08:08.316Z,7.40
2017-06-20T06:10:36.695Z,7.20
2017-06-20T06:13:04.961Z,8.70
2017-06-20T06:15:33.209Z,7.87
2017-06-20T06:18:01.454Z,8.33
2017-06-20T06:20:30.288Z,8.60
2017-06-20T06:22:58.691Z,7.90
2017-06-20T06:25:26.980Z,8.77
2017-06-20T06:27:55.770Z,8.63
2017-06-20T06:30:23.991Z,8.43
2017-06-20T06:32:52.228Z,8.60
2017-06-20T06:35:20.923Z,8.10
2017-06-20T06:37:49.173Z,8.77
2017-06-20T06:40:17.406Z,8.20
2017-06-20T06:42:45.827Z,8.07
2017-06-20T06:45:14.088Z,8.47
2017-06-20T06:47:42.440Z,7.90
2017-06-20T06:50:10.718Z,7.97
2017-06-20T06:52:38.952Z,6.93
2017-06-20T06:55:07.643Z,8.47
2017-06-20T06:57:36.315Z,8.67
2017-06-20T07:00:04.577Z,8.43
2017-06-20T07:02:32.891Z,8.37
2017-06-20T07:05:01.279Z,8.20
2017-06-20T07:07:29.603Z,7.40
2017-06-20T07:09:57.878Z,6.97
2017-06-20T07:12:26.123Z,7.30
2017-06-20T07:14:54.434Z,6.83
2017-06-20T07:17:22.692Z,7.53
2017-06-20T07:19:51.065Z,7.50
2017-06-20T07:22:19.318Z,6.97
2017-06-20T07:24:47.639Z,6.83
2017-06-20T07:27:16.094Z,6.40
2017-06-20T07:29:44.466Z,6.37
2017-06-20T07:32:12.704Z,6.80
2017-06-20T07:34:40.982Z,6.73
2017-06-20T07:37:09.224Z,7.00
2017-06-20T07:39:37.475Z,6.50
2017-06-20T07:42:07.628Z,7.17
2017-06-20T07:44:35.893Z,6.70
2017-06-20T07:47:04.136Z,6.80
2017-06-20T07:49:32.403Z,6.50
2017-06-20T07:52:00.653Z,6.50
2017-06-20T07:54:29.307Z,6.23
2017-06-20T07:56:57.592Z,6.27
2017-06-20T07:59:26.238Z,7.30
2017-06-20T08:01:54.514Z,6.27
2017-06-20T08:04:22.760Z,6.70
2017-06-20T08:06:51.097Z,5.50
2017-06-20T08:09:19.317Z,6.27
2017-06-20T08:11:47.685Z,6.17
2017-06-20T08:14:15.953Z,5.33
2017-06-20T08:16:44.223Z,5.87
2017-06-20T08:19:12.488Z,5.10
2017-06-20T08:22:00.463Z,5.40
2017-06-20T08:24:28.996Z,4.90
2017-06-20T08:26:57.211Z,6.40
2017-06-20T08:29:26.168Z,5.27
2017-06-20T08:31:54.542Z,5.27
2017-06-20T08:34:22.759Z,6.20
2017-06-20T08:36:50.992Z,5.33
2017-06-20T08:39:22.036Z,6.00
2017-06-20T08:41:50.521Z,6.30
2017-06-20T08:44:18.777Z,6.33
2017-06-20T08:46:47.046Z,6.40
2017-06-20T08:49:15.782Z,5.30
2017-06-20T08:51:43.977Z,5.70
2017-06-20T08:54:12.631Z,5.10
2017-06-20T08:56:40.904Z,5.17
2017-06-20T08:59:09.144Z,6.33
2017-06-20T09:01:37.413Z,5.60
2017-06-20T09:04:05.649Z,6.13
2017-06-20T09:06:34.476Z,5.77
2017-06-20T09:09:02.769Z,5.77
2017-06-20T09:11:31.017Z,5.60
2017-06-20T09:13:59.267Z,5.90
2017-06-20T09:16:27.723Z,5.20
2017-06-20T09:18:56.004Z,6.37
2017-06-20T09:21:24.244Z,5.60
2017-06-20T09:23:52.641Z,4.90
2017-06-20T09:26:20.954Z,5.27
2017-06-20T09:28:49.169Z,5.50
2017-06-20T09:31:17.448Z,4.53
2017-06-20T09:33:45.744Z,4.73
2017-06-20T09:36:13.972Z,4.30
2017-06-20T09:38:42.247Z,4.77
2017-06-20T09:41:10.856Z,4.60
2017-06-20T09:43:39.104Z,5.40
2017-06-20T09:46:07.840Z,4.70
2017-06-20T09:48:36.117Z,4.60
2017-06-20T09:51:04.393Z,5.07
2017-06-20T09:53:32.747Z,5.10
2017-06-20T09:56:01.004Z,4.70
2017-06-20T09:58:29.236Z,4.97
2017-06-20T10:00:57.512Z,5.60
2017-06-20T10:03:25.748Z,4.90
2017-06-20T10:05:54.263Z,5.33
2017-06-20T10:08:26.100Z,5.20
2017-06-20T10:10:54.902Z,4.67
2017-06-20T10:13:23.281Z,5.20
2017-06-20T10:15:51.539Z,4.60
2017-06-20T10:18:20.430Z,4.50
2017-06-20T10:20:48.664Z,4.97
2017-06-20T10:23:17.496Z,4.67
2017-06-20T10:25:46.000Z,5.33
2017-06-20T10:28:14.232Z,4.60
2017-06-20T10:30:42.517Z,4.43
2017-06-20T10:33:10.739Z,5.30
2017-06-20T10:35:38.970Z,4.47
2017-06-20T10:38:07.262Z,5.07
2017-06-20T10:40:35.503Z,5.40
2017-06-20T10:43:04.037Z,5.03
2017-06-20T10:45:33.019Z,5.13
2017-06-20T10:48:01.258Z,4.83
2017-06-20T10:50:29.488Z,5.00
2017-06-20T10:52:58.028Z,5.07
2017-06-20T10:55:26.296Z,5.47
2017-06-20T10:57:54.817Z,4.70
2017-06-20T11:00:23.088Z,5.00
2017-06-20T11:02:51.390Z,5.13
2017-06-20T11:05:19.723Z,4.87
2017-06-20T11:07:48.023Z,5.27
2017-06-20T11:10:16.610Z,5.63
2017-06-20T11:12:44.875Z,5.03
2017-06-20T11:15:13.356Z,5.27
2017-06-20T11:17:41.582Z,6.60
2017-06-20T11:20:10.124Z,5.13
2017-06-20T11:22:38.400Z,4.70
2017-06-20T11:25:06.670Z,4.80
2017-06-20T11:27:34.902Z,5.03
2017-06-20T11:30:03.157Z,4.83
2017-06-20T11:32:31.805Z,4.60
2017-06-20T11:35:00.047Z,4.20
2017-06-20T11:37:28.354Z,5.17
2017-06-20T11:39:56.590Z,4.20
2017-06-20T11:42:24.832Z,4.70
2017-06-20T11:44:53.524Z,4.87
2017-06-20T11:47:22.076Z,5.43
2017-06-20T11:49:50.319Z,4.80
2017-06-20T11:52:18.623Z,4.90
2017-06-20T11:54:46.842Z,5.83
2017-06-20T11:57:15.501Z,4.60
2017-06-20T11:59:43.772Z,4.93
2017-06-20T12:02:12.038Z,4.80
2017-06-20T12:04:40.268Z,5.40
2017-06-20T12:07:08.629Z,4.60
2017-06-20T12:09:37.241Z,5.20
2017-06-20T12:12:05.482Z,5.37
2017-06-20T12:14:35.579Z,4.70
2017-06-20T12:17:05.305Z,8.20
2017-06-20T12:19:33.567Z,6.80
2017-06-20T12:22:01.805Z,7.27
2017-06-20T12:24:30.039Z,8.80
2017-06-20T12:26:58.896Z,5.10
2017-06-20T12:29:27.164Z,5.23
2017-06-20T12:31:55.444Z,4.43
2017-06-20T12:34:23.722Z,4.97
2017-06-20T12:36:52.182Z,4.10
2017-06-20T12:39:20.444Z,4.23
2017-06-20T12:41:48.964Z,4.20
2017-06-20T12:44:17.245Z,3.80
2017-06-20T12:46:45.483Z,3.73
2017-06-20T12:49:13.751Z,3.20
2017-06-20T12:51:42.020Z,3.03
2017-06-20T12:54:10.283Z,3.50
2017-06-20T12:56:38.552Z,3.40
2017-06-20T12:59:07.187Z,3.00
2017-06-20T13:01:35.408Z,3.90
2017-06-20T13:04:03.809Z,3.37
2017-06-20T13:06:32.045Z,3.30
2017-06-20T13:09:00.294Z,3.33
2017-06-20T13:11:28.610Z,3.67
2017-06-20T13:13:57.239Z,2.83
2017-06-20T13:16:25.643Z,3.20
2017-06-20T13:18:54.007Z,3.50
2017-06-20T13:21:22.244Z,3.90
2017-06-20T13:23:50.528Z,3.33
2017-06-20T13:26:18.784Z,4.23
2017-06-20T13:28:47.425Z,5.20
2017-06-20T13:31:15.671Z,3.67
2017-06-20T13:33:43.950Z,3.50
2017-06-20T13:36:12.188Z,3.63
2017-06-20T13:38:40.828Z,3.20
2017-06-20T13:41:09.108Z,3.37
2017-06-20T13:43:37.335Z,3.67
2017-06-20T13:46:05.593Z,3.10
2017-06-20T13:48:33.948Z,3.27
2017-06-20T13:51:02.165Z,3.30
2017-06-20T13:53:30.414Z,3.03
2017-06-20T13:55:58.683Z,3.00
2017-06-20T13:58:26.921Z,2.93
2017-06-20T14:00:55.157Z,2.90
2017-06-20T14:03:23.455Z,2.90
2017-06-20T14:05:51.698Z,2.90
2017-06-20T14:08:19.925Z,2.70
2017-06-20T14:10:48.217Z,2.50
2017-06-20T14:13:16.479Z,3.27
2017-06-20T14:15:44.933Z,2.90
2017-06-20T14:18:13.209Z,2.77
2017-06-20T14:20:41.450Z,2.60
2017-06-20T14:23:09.786Z,2.50
2017-06-20T14:25:38.062Z,2.83
2017-06-20T14:28:06.312Z,3.10
2017-06-20T14:30:34.545Z,2.80
2017-06-20T14:33:02.808Z,2.90
2017-06-20T14:35:31.048Z,2.63
2017-06-20T14:37:59.334Z,3.20
2017-06-20T14:40:27.604Z,2.70
2017-06-20T14:42:55.870Z,2.70
2017-06-20T14:45:24.097Z,2.93
2017-06-20T14:47:52.474Z,2.50
2017-06-20T14:50:20.707Z,3.30
2017-06-20T14:52:49.256Z,3.20
2017-06-20T14:55:17.515Z,3.20
2017-06-20T14:57:45.762Z,2.90
2017-06-20T15:00:14.037Z,3.03
2017-06-20T15:02:42.351Z,2.60
2017-06-20T15:05:10.584Z,3.07
2017-06-20T15:07:38.845Z,2.57
2017-06-20T15:10:07.157Z,2.60
2017-06-20T15:12:35.390Z,2.73
2017-06-20T15:15:03.710Z,4.90
2017-06-20T15:17:32.031Z,3.17
2017-06-20T15:20:00.259Z,3.27
2017-06-20T15:22:28.833Z,3.40
2017-06-20T15:24:57.088Z,2.53
2017-06-20T15:27:25.408Z,2.80
2017-06-20T15:29:53.941Z,2.80
2017-06-20T15:32:22.217Z,2.93
2017-06-20T15:34:50.457Z,3.10
2017-06-20T15:37:18.701Z,2.80
2017-06-20T15:39:47.084Z,2.80
2017-06-20T15:42:16.168Z,2.80
2017-06-20T15:44:44.405Z,2.80
2017-06-20T15:47:12.687Z,2.50
2017-06-20T15:49:41.291Z,2.80
2017-06-20T15:52:09.558Z,2.60
2017-06-20T15:54:37.868Z,2.20
2017-06-20T15:57:06.125Z,2.17
2017-06-20T15:59:34.349Z,2.70
2017-06-20T16:02:02.671Z,2.60
2017-06-20T16:04:31.007Z,3.23
2017-06-20T16:06:59.644Z,2.50
2017-06-20T16:09:28.001Z,2.40
2017-06-20T16:11:56.252Z,2.13
2017-06-20T16:14:24.923Z,2.10
2017-06-20T16:16:53.423Z,2.60
2017-06-20T16:19:21.692Z,2.40
2017-06-20T16:21:49.967Z,2.30
2017-06-20T16:24:18.336Z,2.33
2017-06-20T16:26:46.586Z,2.10
2017-06-20T16:29:14.832Z,2.20
2017-06-20T16:31:43.122Z,2.23
2017-06-20T16:34:11.358Z,2.03
2017-06-20T16:36:39.596Z,2.20
2017-06-20T16:39:07.866Z,2.63
2017-06-20T16:41:36.105Z,1.93
2017-06-20T16:44:04.389Z,2.13
2017-06-20T16:46:33.124Z,1.93
2017-06-20T16:49:01.771Z,2.23
2017-06-20T16:51:30.036Z,2.50
2017-06-20T16:53:58.327Z,3.60
2017-06-20T16:56:26.567Z,2.67
2017-06-20T16:58:54.888Z,3.00
2017-06-20T17:01:23.150Z,2.90
2017-06-20T17:03:51.420Z,3.30
2017-06-20T17:06:19.673Z,2.50
2017-06-20T17:08:47.939Z,3.17
2017-06-20T17:11:16.171Z,3.03
2017-06-20T17:13:44.452Z,3.40
2017-06-20T17:16:13.229Z,2.73
2017-06-20T17:18:41.500Z,2.53
2017-06-20T17:21:09.747Z,2.60
2017-06-20T17:23:38.055Z,2.30
2017-06-20T17:26:06.293Z,2.10
2017-06-20T17:28:34.554Z,2.93
2017-06-20T17:31:02.864Z,2.70
2017-06-20T17:33:31.106Z,2.70
2017-06-20T17:35:59.767Z,2.23
2017-06-20T17:38:28.335Z,2.40
2017-06-20T17:40:56.564Z,2.87
2017-06-20T17:43:24.800Z,2.50
2017-06-20T17:45:53.072Z,2.40
2017-06-20T17:48:21.708Z,2.50
2017-06-20T17:50:49.940Z,2.50
2017-06-20T17:53:18.628Z,2.67
2017-06-20T17:55:46.870Z,3.90
2017-06-20T17:58:15.103Z,2.43
2017-06-20T18:00:43.529Z,2.70
2017-06-20T18:03:11.760Z,2.17
2017-06-20T18:05:39.988Z,2.30
2017-06-20T18:08:08.265Z,3.03
2017-06-20T18:10:36.504Z,1.90
2017-06-20T18:13:04.745Z,2.40
2017-06-20T18:15:33.300Z,1.90
2017-06-20T18:18:01.555Z,2.20
2017-06-20T18:20:29.789Z,2.23
2017-06-20T18:22:58.075Z,2.10
2017-06-20T18:25:26.309Z,2.00
2017-06-20T18:27:54.549Z,2.07
2017-06-20T18:30:22.820Z,2.37
2017-06-20T18:32:51.048Z,2.20
2017-06-20T18:35:19.684Z,2.43
2017-06-20T18:37:47.963Z,2.20
2017-06-20T18:40:16.243Z,2.50
2017-06-20T18:42:44.744Z,2.40
2017-06-20T18:45:13.027Z,2.40
2017-06-20T18:47:41.500Z,2.37
2017-06-20T18:50:09.995Z,2.20
2017-06-20T18:52:38.251Z,2.53
2017-06-20T18:55:06.480Z,2.13
2017-06-20T18:57:35.124Z,2.43
2017-06-20T19:00:03.457Z,2.80
2017-06-20T19:02:31.684Z,2.57
2017-06-20T19:04:59.916Z,2.20
2017-06-20T19:07:28.188Z,2.00
2017-06-20T19:09:56.425Z,2.10
2017-06-20T19:12:25.052Z,2.33
2017-06-20T19:14:53.449Z,2.17
2017-06-20T19:17:21.671Z,2.33
2017-06-20T19:19:49.899Z,2.10
2017-06-20T19:22:18.173Z,2.37
2017-06-20T19:24:46.421Z,2.10
2017-06-20T19:27:14.660Z,2.30
2017-06-20T19:29:43.341Z,1.90
2017-06-20T19:32:11.972Z,1.80
2017-06-20T19:34:40.487Z,2.10
2017-06-20T19:37:08.744Z,1.90
2017-06-20T19:39:37.239Z,2.30
2017-06-20T19:42:05.477Z,2.00
2017-06-20T19:44:34.105Z,2.40
2017-06-20T19:47:02.331Z,1.77
2017-06-20T19:49:30.584Z,2.30
2017-06-20T19:51:58.851Z,2.00
2017-06-20T19:54:27.487Z,2.33
2017-06-20T19:56:55.726Z,1.90
2017-06-20T19:59:24.272Z,2.33
2017-06-20T20:01:52.508Z,2.20
2017-06-20T20:04:20.735Z,2.20
2017-06-20T20:06:49.712Z,1.93
2017-06-20T20:09:17.992Z,1.70
2017-06-20T20:11:46.233Z,1.90
2017-06-20T20:14:14.596Z,2.30
2017-06-20T20:16:42.851Z,6.67
2017-06-20T20:19:11.484Z,8.50
2017-06-20T20:21:39.988Z,4.50
2017-06-20T20:24:08.242Z,2.10
2017-06-20T20:26:36.476Z,1.90
2017-06-20T20:29:04.776Z,1.80
2017-06-20T20:31:33.000Z,1.90
2017-06-20T20:34:01.232Z,1.70
2017-06-20T20:36:29.492Z,1.90
2017-06-20T20:38:58.016Z,1.80
2017-06-20T20:41:26.260Z,1.87
2017-06-20T20:43:54.541Z,2.00
2017-06-20T20:46:23.051Z,1.97
2017-06-20T20:48:51.832Z,1.90
2017-06-20T20:51:20.112Z,1.80
2017-06-20T20:53:48.343Z,1.60
2017-06-20T20:56:16.616Z,1.80
2017-06-20T20:58:44.909Z,2.00
2017-06-20T21:01:13.213Z,1.70
2017-06-20T21:03:41.452Z,2.03
2017-06-20T21:06:09.724Z,2.10
2017-06-20T21:08:37.988Z,1.70
2017-06-20T21:11:06.225Z,1.63
2017-06-20T21:13:34.507Z,1.87
2017-06-20T21:16:03.503Z,1.87
2017-06-20T21:18:31.753Z,1.63
2017-06-20T21:21:00.097Z,2.00
2017-06-20T21:23:28.462Z,1.50
2017-06-20T21:25:57.122Z,1.87
2017-06-20T21:28:25.485Z,1.63
2017-06-20T21:30:53.708Z,1.40
2017-06-20T21:33:21.935Z,1.50
2017-06-20T21:35:50.619Z,1.70
2017-06-20T21:38:18.908Z,1.77
2017-06-20T21:40:47.141Z,1.70
2017-06-20T21:43:15.448Z,1.73
2017-06-20T21:45:43.723Z,2.00
2017-06-20T21:48:12.752Z,1.30
2017-06-20T21:50:41.112Z,1.40
2017-06-20T21:53:09.345Z,1.17
2017-06-20T21:55:37.591Z,1.30
2017-06-20T21:58:05.864Z,1.47
2017-06-20T22:00:34.133Z,1.20
2017-06-20T22:03:02.395Z,1.30
2017-06-20T22:05:31.487Z,1.23
2017-06-20T22:08:00.052Z,1.50
2017-06-20T22:10:32.144Z,1.23
2017-06-20T22:13:00.375Z,1.20
2017-06-20T22:15:28.871Z,1.13
2017-06-20T22:17:57.127Z,1.50
2017-06-20T22:20:25.352Z,1.20
2017-06-20T22:22:53.592Z,1.70
2017-06-20T22:25:21.903Z,1.20
2017-06-20T22:27:50.115Z,1.97
2017-06-20T22:30:18.384Z,1.40
2017-06-20T22:32:46.658Z,1.50
2017-06-20T22:35:14.995Z,1.30
2017-06-20T22:37:43.316Z,1.30
2017-06-20T22:40:11.939Z,1.37
2017-06-20T22:42:40.173Z,1.27
2017-06-20T22:45:08.412Z,1.10
2017-06-20T22:47:37.072Z,1.10
2017-06-20T22:50:05.297Z,1.50
2017-06-20T22:52:33.537Z,1.30
2017-06-20T22:55:01.801Z,1.30
2017-06-20T22:57:30.055Z,1.00
2017-06-20T22:59:58.364Z,1.20
2017-06-20T23:02:26.941Z,1.60
2017-06-20T23:04:55.164Z,1.30
2017-06-20T23:07:23.402Z,1.77
2017-06-20T23:09:51.675Z,1.40
2017-06-20T23:12:20.311Z,1.40
2017-06-20T23:14:48.594Z,2.63
2017-06-20T23:17:16.856Z,1.47
2017-06-20T23:19:45.087Z,1.37
2017-06-20T23:22:13.340Z,1.40
2017-06-20T23:24:41.695Z,1.40
2017-06-20T23:27:10.572Z,1.73
2017-06-20T23:29:38.815Z,1.40
2017-06-20T23:32:07.513Z,1.50
2017-06-20T23:34:36.145Z,1.70
2017-06-20T23:37:04.372Z,1.40
2017-06-20T23:39:33.768Z,1.47
2017-06-20T23:42:02.423Z,1.33
2017-06-20T23:44:30.664Z,1.60
2017-06-20T23:46:58.921Z,1.50
2017-06-20T23:49:27.175Z,1.03
2017-06-20T23:51:55.430Z,1.40
2017-06-20T23:54:23.771Z,1.80
2017-06-20T23:56:52.053Z,1.83
2017-06-20T23:59:20.326Z,1.40
